sensor_id;sensor_type;location;lat;lon;timestamp;P1;durP1;ratioP1;P2;durP2;ratioP2
4646;SDS011;2336;47.822;7.564;2022-12-20T04:32:34;10.23;;;9.10;;
4646;SDS011;2336;47.822;7.564;2022-12-20T04:35:01;10.43;;;9.40;;
4646;SDS011;2336;47.822;7.564;2022-12-20T04:37:29;8.47;;;7.77;;
4646;SDS011;2336;47.822;7.564;2022-12-20T04:39:56;9.10;;;8.20;;
4646;SDS011;2336;47.822;7.564;2022-12-20T04:42:23;11.33;;;8.40;;
4646;SDS011;2336;47.822;7.564;2022-12-20T04:44:50;8.67;;;7.40;;
4646;SDS011;2336;47.822;7.564;2022-12-20T04:47:17;8.10;;;7.30;;
4646;SDS011;2336;47.822;7.564;2022-12-20T04:49:45;7.73;;;7.03;;
4646;SDS011;2336;47.822;7.564;2022-12-20T04:52:12;11.10;;;7.30;;
4646;SDS011;2336;47.822;7.564;2022-12-20T04:54:57;8.10;;;7.17;;
4646;SDS011;2336;47.822;7.564;2022-12-20T04:57:23;7.70;;;7.00;;
4646;SDS011;2336;47.822;7.564;2022-12-20T04:59:50;8.30;;;7.63;;
4646;SDS011;2336;47.822;7.564;2022-12-20T05:02:17;7.87;;;7.27;;
4646;SDS011;2336;47.822;7.564;2022-12-20T05:04:45;7.97;;;7.27;;
4646;SDS011;2336;47.822;7.564;2022-12-20T05:07:12;8.07;;;7.47;;
4646;SDS011;2336;47.822;7.564;2022-12-20T05:09:39;9.20;;;7.87;;
4646;SDS011;2336;47.822;7.564;2022-12-20T05:12:06;10.43;;;7.77;;
4646;SDS011;2336;47.822;7.564;2022-12-20T05:14:33;8.50;;;7.77;;
4646;SDS011;2336;47.822;7.564;2022-12-20T05:16:59;7.93;;;7.07;;
4646;SDS011;2336;47.822;7.564;2022-12-20T05:19:26;7.90;;;7.20;;
4646;SDS011;2336;47.822;7.564;2022-12-20T05:21:54;8.63;;;7.83;;
4646;SDS011;2336;47.822;7.564;2022-12-20T05:24:53;9.13;;;8.13;;
4646;SDS011;2336;47.822;7.564;2022-12-20T05:27:38;9.07;;;7.80;;
4646;SDS011;2336;47.822;7.564;2022-12-20T05:30:05;8.93;;;8.03;;
4646;SDS011;2336;47.822;7.564;2022-12-20T05:32:32;7.77;;;7.17;;
4646;SDS011;2336;47.822;7.564;2022-12-20T05:34:59;7.60;;;6.90;;
4646;SDS011;2336;47.822;7.564;2022-12-20T05:37:27;9.23;;;8.43;;
4646;SDS011;2336;47.822;7.564;2022-12-20T05:39:54;8.13;;;7.43;;
4646;SDS011;2336;47.822;7.564;2022-12-20T05:42:21;9.00;;;8.20;;
4646;SDS011;2336;47.822;7.564;2022-12-20T05:44:48;9.30;;;8.30;;
4646;SDS011;2336;47.822;7.564;2022-12-20T05:47:15;8.70;;;7.93;;
4646;SDS011;2336;47.822;7.564;2022-12-20T05:49:42;9.10;;;8.20;;
4646;SDS011;2336;47.822;7.564;2022-12-20T05:52:09;8.53;;;7.83;;
4646;SDS011;2336;47.822;7.564;2022-12-20T05:54:37;8.57;;;7.77;;
4646;SDS011;2336;47.822;7.564;2022-12-20T15:33:41;10.30;;;5.17;;
4646;SDS011;2336;47.822;7.564;2022-12-20T15:36:11;6.23;;;5.63;;
4646;SDS011;2336;47.822;7.564;2022-12-20T15:38:42;6.33;;;5.60;;
4646;SDS011;2336;47.822;7.564;2022-12-20T15:41:12;9.10;;;6.07;;
4646;SDS011;2336;47.822;7.564;2022-12-20T15:43:43;5.17;;;4.87;;
4646;SDS011;2336;47.822;7.564;2022-12-20T15:46:10;7.17;;;6.43;;
4646;SDS011;2336;47.822;7.564;2022-12-20T15:48:38;6.50;;;5.90;;
4646;SDS011;2336;47.822;7.564;2022-12-20T15:51:11;10.73;;;6.23;;
4646;SDS011;2336;47.822;7.564;2022-12-20T15:53:42;5.33;;;4.90;;
4646;SDS011;2336;47.822;7.564;2022-12-20T15:56:11;5.07;;;4.73;;
4646;SDS011;2336;47.822;7.564;2022-12-20T15:58:42;7.40;;;5.63;;
4646;SDS011;2336;47.822;7.564;2022-12-20T16:01:08;6.30;;;5.80;;
4646;SDS011;2336;47.822;7.564;2022-12-20T16:03:39;5.70;;;5.20;;
4646;SDS011;2336;47.822;7.564;2022-12-20T16:06:08;5.77;;;5.27;;
4646;SDS011;2336;47.822;7.564;2022-12-20T16:08:36;6.13;;;5.53;;
4646;SDS011;2336;47.822;7.564;2022-12-20T16:11:03;7.27;;;5.00;;
4646;SDS011;2336;47.822;7.564;2022-12-20T16:13:31;6.40;;;5.90;;
4646;SDS011;2336;47.822;7.564;2022-12-20T16:15:59;6.60;;;6.00;;
4646;SDS011;2336;47.822;7.564;2022-12-20T16:18:26;6.80;;;5.90;;
4646;SDS011;2336;47.822;7.564;2022-12-20T16:20:54;7.67;;;6.90;;
4646;SDS011;2336;47.822;7.564;2022-12-20T16:23:22;6.70;;;6.00;;
4646;SDS011;2336;47.822;7.564;2022-12-20T16:25:49;6.40;;;5.83;;
4646;SDS011;2336;47.822;7.564;2022-12-20T16:28:15;7.60;;;6.50;;
4646;SDS011;2336;47.822;7.564;2022-12-20T16:30:42;7.87;;;6.87;;
4646;SDS011;2336;47.822;7.564;2022-12-20T16:33:12;9.60;;;7.20;;
4646;SDS011;2336;47.822;7.564;2022-12-20T16:35:45;8.30;;;6.00;;
4646;SDS011;2336;47.822;7.564;2022-12-20T16:38:12;5.77;;;5.27;;
4646;SDS011;2336;47.822;7.564;2022-12-20T16:40:40;6.07;;;5.33;;
4646;SDS011;2336;47.822;7.564;2022-12-20T16:43:08;6.53;;;5.90;;
4646;SDS011;2336;47.822;7.564;2022-12-20T16:45:39;7.40;;;6.70;;
4646;SDS011;2336;47.822;7.564;2022-12-20T16:48:07;6.00;;;5.40;;
4646;SDS011;2336;47.822;7.564;2022-12-20T16:50:34;5.37;;;4.70;;
4646;SDS011;2336;47.822;7.564;2022-12-20T16:53:08;6.13;;;5.60;;
4646;SDS011;2336;47.822;7.564;2022-12-20T16:55:38;6.10;;;5.60;;
4646;SDS011;2336;47.822;7.564;2022-12-20T16:58:06;7.60;;;6.77;;
4646;SDS011;2336;47.822;7.564;2022-12-20T17:00:32;8.00;;;7.20;;
4646;SDS011;2336;47.822;7.564;2022-12-20T17:03:01;13.93;;;9.17;;
4646;SDS011;2336;47.822;7.564;2022-12-20T17:05:29;7.20;;;6.60;;
4646;SDS011;2336;47.822;7.564;2022-12-20T17:07:56;6.90;;;6.30;;
4646;SDS011;2336;47.822;7.564;2022-12-20T17:10:24;8.60;;;6.63;;
4646;SDS011;2336;47.822;7.564;2022-12-20T17:12:52;7.00;;;6.30;;
4646;SDS011;2336;47.822;7.564;2022-12-20T17:15:22;9.00;;;5.87;;
4646;SDS011;2336;47.822;7.564;2022-12-20T17:17:50;6.50;;;5.90;;
4646;SDS011;2336;47.822;7.564;2022-12-20T17:20:18;6.60;;;6.00;;
4646;SDS011;2336;47.822;7.564;2022-12-20T17:22:50;9.00;;;6.70;;
4646;SDS011;2336;47.822;7.564;2022-12-20T17:25:18;6.70;;;6.00;;
4646;SDS011;2336;47.822;7.564;2022-12-20T17:27:49;8.00;;;6.07;;
4646;SDS011;2336;47.822;7.564;2022-12-20T17:30:17;6.87;;;6.27;;
4646;SDS011;2336;47.822;7.564;2022-12-20T17:32:45;6.77;;;6.13;;
4646;SDS011;2336;47.822;7.564;2022-12-20T17:35:15;6.97;;;6.37;;
4646;SDS011;2336;47.822;7.564;2022-12-20T17:37:45;7.20;;;6.60;;
4646;SDS011;2336;47.822;7.564;2022-12-20T17:40:12;10.43;;;6.67;;
4646;SDS011;2336;47.822;7.564;2022-12-20T17:42:40;6.70;;;6.20;;
4646;SDS011;2336;47.822;7.564;2022-12-20T17:45:09;15.10;;;7.60;;
4646;SDS011;2336;47.822;7.564;2022-12-20T17:47:47;8.33;;;7.63;;
4646;SDS011;2336;47.822;7.564;2022-12-20T17:50:14;8.43;;;6.87;;
4646;SDS011;2336;47.822;7.564;2022-12-20T17:52:42;8.10;;;7.30;;
4646;SDS011;2336;47.822;7.564;2022-12-20T17:55:10;9.20;;;7.20;;
4646;SDS011;2336;47.822;7.564;2022-12-20T17:57:44;6.67;;;5.93;;
4646;SDS011;2336;47.822;7.564;2022-12-20T18:00:15;7.57;;;6.97;;
4646;SDS011;2336;47.822;7.564;2022-12-20T18:02:44;7.30;;;6.70;;
4646;SDS011;2336;47.822;7.564;2022-12-20T18:05:12;8.83;;;6.77;;
4646;SDS011;2336;47.822;7.564;2022-12-20T18:07:39;7.77;;;6.30;;
4646;SDS011;2336;47.822;7.564;2022-12-20T18:10:06;6.80;;;6.30;;
4646;SDS011;2336;47.822;7.564;2022-12-20T18:12:33;7.17;;;6.57;;
4646;SDS011;2336;47.822;7.564;2022-12-20T18:15:00;9.83;;;6.60;;
4646;SDS011;2336;47.822;7.564;2022-12-20T18:17:27;7.47;;;6.80;;
4646;SDS011;2336;47.822;7.564;2022-12-20T18:19:54;7.77;;;7.03;;
4646;SDS011;2336;47.822;7.564;2022-12-20T18:22:22;8.10;;;7.30;;
4646;SDS011;2336;47.822;7.564;2022-12-20T18:24:49;10.83;;;7.20;;
4646;SDS011;2336;47.822;7.564;2022-12-20T18:27:15;7.50;;;6.83;;
4646;SDS011;2336;47.822;7.564;2022-12-20T18:29:42;10.90;;;9.80;;
4646;SDS011;2336;47.822;7.564;2022-12-20T18:32:09;11.13;;;7.33;;
4646;SDS011;2336;47.822;7.564;2022-12-20T18:34:36;9.87;;;8.90;;
4646;SDS011;2336;47.822;7.564;2022-12-20T18:37:03;8.30;;;7.50;;
4646;SDS011;2336;47.822;7.564;2022-12-20T18:39:31;8.97;;;8.13;;
4646;SDS011;2336;47.822;7.564;2022-12-20T18:41:58;10.43;;;8.00;;
4646;SDS011;2336;47.822;7.564;2022-12-20T18:44:25;8.33;;;7.63;;
4646;SDS011;2336;47.822;7.564;2022-12-20T18:46:52;8.13;;;7.43;;
4646;SDS011;2336;47.822;7.564;2022-12-20T18:49:18;9.10;;;8.40;;
4646;SDS011;2336;47.822;7.564;2022-12-20T18:51:45;7.43;;;6.50;;
4646;SDS011;2336;47.822;7.564;2022-12-20T18:54:12;8.23;;;7.50;;
4646;SDS011;2336;47.822;7.564;2022-12-20T18:56:41;8.23;;;7.53;;
4646;SDS011;2336;47.822;7.564;2022-12-20T18:59:07;8.43;;;7.53;;
4646;SDS011;2336;47.822;7.564;2022-12-20T19:01:35;7.97;;;7.27;;
4646;SDS011;2336;47.822;7.564;2022-12-20T19:04:03;8.60;;;7.70;;
4646;SDS011;2336;47.822;7.564;2022-12-20T19:06:31;8.13;;;7.33;;
4646;SDS011;2336;47.822;7.564;2022-12-20T19:08:59;7.40;;;6.80;;
4646;SDS011;2336;47.822;7.564;2022-12-20T19:11:26;8.03;;;7.20;;
4646;SDS011;2336;47.822;7.564;2022-12-20T19:13:54;8.80;;;7.90;;
4646;SDS011;2336;47.822;7.564;2022-12-20T19:16:22;8.23;;;7.43;;
4646;SDS011;2336;47.822;7.564;2022-12-20T19:18:50;7.80;;;7.10;;
4646;SDS011;2336;47.822;7.564;2022-12-20T19:21:19;12.13;;;7.40;;
4646;SDS011;2336;47.822;7.564;2022-12-20T19:23:49;8.60;;;7.13;;
4646;SDS011;2336;47.822;7.564;2022-12-20T19:26:17;10.90;;;9.73;;
4646;SDS011;2336;47.822;7.564;2022-12-20T19:28:45;10.23;;;9.20;;
4646;SDS011;2336;47.822;7.564;2022-12-20T19:31:14;11.47;;;10.07;;
4646;SDS011;2336;47.822;7.564;2022-12-20T19:33:43;8.23;;;7.47;;
4646;SDS011;2336;47.822;7.564;2022-12-20T19:36:12;8.10;;;7.50;;
4646;SDS011;2336;47.822;7.564;2022-12-20T19:38:41;8.10;;;7.30;;
4646;SDS011;2336;47.822;7.564;2022-12-20T19:41:09;7.97;;;7.27;;
4646;SDS011;2336;47.822;7.564;2022-12-20T19:43:36;7.43;;;6.83;;
4646;SDS011;2336;47.822;7.564;2022-12-20T19:46:03;7.80;;;7.00;;
4646;SDS011;2336;47.822;7.564;2022-12-20T19:48:31;7.53;;;6.83;;
4646;SDS011;2336;47.822;7.564;2022-12-20T19:51:02;7.00;;;6.40;;
4646;SDS011;2336;47.822;7.564;2022-12-20T19:53:29;6.83;;;6.30;;
4646;SDS011;2336;47.822;7.564;2022-12-20T19:55:56;7.10;;;6.50;;
4646;SDS011;2336;47.822;7.564;2022-12-20T19:58:23;7.40;;;6.80;;
4646;SDS011;2336;47.822;7.564;2022-12-20T20:00:50;7.77;;;6.63;;
4646;SDS011;2336;47.822;7.564;2022-12-20T20:03:17;7.57;;;5.90;;
4646;SDS011;2336;47.822;7.564;2022-12-20T20:05:46;6.90;;;6.33;;
4646;SDS011;2336;47.822;7.564;2022-12-20T20:08:14;7.40;;;6.80;;
4646;SDS011;2336;47.822;7.564;2022-12-20T20:10:41;6.70;;;6.17;;
4646;SDS011;2336;47.822;7.564;2022-12-20T20:13:08;7.07;;;6.37;;
4646;SDS011;2336;47.822;7.564;2022-12-20T20:15:35;9.23;;;7.03;;
4646;SDS011;2336;47.822;7.564;2022-12-20T20:18:02;7.33;;;6.70;;
4646;SDS011;2336;47.822;7.564;2022-12-20T20:20:29;7.80;;;7.10;;
4646;SDS011;2336;47.822;7.564;2022-12-20T20:23:00;7.60;;;7.00;;
4646;SDS011;2336;47.822;7.564;2022-12-20T20:25:26;9.03;;;8.13;;
4646;SDS011;2336;47.822;7.564;2022-12-20T20:27:53;8.13;;;7.33;;
4646;SDS011;2336;47.822;7.564;2022-12-20T20:30:20;7.43;;;6.40;;
4646;SDS011;2336;47.822;7.564;2022-12-20T20:32:48;7.07;;;6.37;;
4646;SDS011;2336;47.822;7.564;2022-12-20T20:35:15;7.53;;;6.93;;
4646;SDS011;2336;47.822;7.564;2022-12-20T20:37:42;8.90;;;7.33;;
4646;SDS011;2336;47.822;7.564;2022-12-20T20:40:12;8.17;;;7.10;;
4646;SDS011;2336;47.822;7.564;2022-12-20T20:42:40;9.40;;;8.40;;
4646;SDS011;2336;47.822;7.564;2022-12-20T20:45:07;7.90;;;7.30;;
4646;SDS011;2336;47.822;7.564;2022-12-20T20:47:34;10.40;;;9.30;;
4646;SDS011;2336;47.822;7.564;2022-12-20T20:50:01;8.60;;;7.60;;
4646;SDS011;2336;47.822;7.564;2022-12-20T20:52:28;9.47;;;8.53;;
4646;SDS011;2336;47.822;7.564;2022-12-20T20:54:55;8.50;;;7.70;;
4646;SDS011;2336;47.822;7.564;2022-12-20T20:57:23;8.27;;;7.47;;
4646;SDS011;2336;47.822;7.564;2022-12-20T20:59:49;7.27;;;6.60;;
4646;SDS011;2336;47.822;7.564;2022-12-20T21:02:16;8.37;;;7.63;;
4646;SDS011;2336;47.822;7.564;2022-12-20T21:04:44;7.73;;;7.13;;
4646;SDS011;2336;47.822;7.564;2022-12-20T21:07:11;7.90;;;7.13;;
4646;SDS011;2336;47.822;7.564;2022-12-20T21:09:38;8.33;;;7.53;;
4646;SDS011;2336;47.822;7.564;2022-12-20T21:12:05;8.57;;;7.83;;
4646;SDS011;2336;47.822;7.564;2022-12-20T21:14:33;6.90;;;6.40;;
4646;SDS011;2336;47.822;7.564;2022-12-20T21:16:59;7.37;;;6.73;;
4646;SDS011;2336;47.822;7.564;2022-12-20T21:19:26;8.43;;;7.63;;
4646;SDS011;2336;47.822;7.564;2022-12-20T21:21:53;8.23;;;6.77;;
4646;SDS011;2336;47.822;7.564;2022-12-20T21:24:20;8.00;;;7.20;;
4646;SDS011;2336;47.822;7.564;2022-12-20T21:26:47;6.83;;;6.20;;
4646;SDS011;2336;47.822;7.564;2022-12-20T21:29:15;7.73;;;7.00;;
